Terminal Aerodrome Forecast
Issued by NWS

Home | Current Version | Previous Version | Graphics & Text | Print | Product List | Glossary On
Versions: 1 2 3 4 5 6 7 8 9 10 11 12 13 14
000
FTUS43 KTOP 191700
TAFFOE
TAF
KFOE 191720Z 1918/2018 19020G28KT P6SM SCT250
     FM200100 17011KT P6SM BKN250
     FM201400 18014G21KT P6SM SCT060 BKN150=

USA.gov is the U.S. government's official web portal to all federal, state and local government web resources and services.